Archival Weather

Chicago O'Hare International

Chicago, Illinois (KORD)

Report from: Friday, September 23, 2022 5:51 AM CDT
Current time: Sunday, December 4, 2022 5:35 AM CST

Current weather
Weather history
Weather forecast

Temperature10.6°C (51.1°F)
Dew point5.6°C (42.1°F)
Winds 5 kts (2.6 m/s, 5.8 mph) West-Northwest (300°)
Visibility10 mi. (16.1 km)
Clouds Few clouds 2,600 ft. (792 m)
Scattered clouds 4,000 ft. (1,219 m)
Scattered clouds 25,000 ft. (7,620 m)
Altimeter30.24 in.Hg (1024 mB)
Relative humidity71 %
Density altitude-757 ft. (-231 m)
Sea-level pressure102.4 kPa (1024 mB, 30.24 in.Hg)
Remarks Automated weather observing station with precipitation discriminator
Flight conditions Visual Meteorological Conditions
Raw dataKORD 231051Z 30005KT 10SM FEW026 SCT040 SCT250 11/06 A3024 RMK AO2 SLP242 T01060056
An error has occurred. This application may no longer respond until reloaded. Reload 🗙